Time;durP1;ratioP1;P1;durP2;ratioP2;P2;SDS_P1;SDS_P2;PMS_P1;PMS_P2;Temp;Humidity;BMP_temperature;BMP_pressure;BME280_temperature;BME280_humidity;BME280_pressure;Samples;Min_cycle;Max_cycle;Signal;HPM_P1;HPM_P2
2022/01/06 00:00:32;;;;;;;;;;;19.80;58.90;;;;;;5072369;28;1366;-70
2022/01/06 00:02:57;;;;;;;;;;;19.80;58.90;;;;;;5072007;28;1112;-70
2022/01/06 00:05:23;;;;;;;;;;;19.80;58.90;;;;;;5054274;28;1310;-70
2022/01/06 00:07:48;;;;;;;;;;;19.80;58.90;;;;;;5072105;28;1344;-70
2022/01/06 00:10:15;;;;;;;;;;;19.80;58.90;;;;;;5072058;28;1095;-70
2022/01/06 00:12:49;;;;;;;;;;;19.70;59.00;;;;;;5071388;28;1902;-70
2022/01/06 00:15:32;;;;;;;;;;;19.70;59.00;;;;;;5073093;28;1334;-70
2022/01/06 00:23:25;;;;;;;;;;;19.70;59.00;;;;;;5074307;28;1069;-70
2022/01/06 00:25:51;;;;;;;;;;;19.70;59.10;;;;;;5075988;28;1298;-71
2022/01/06 00:28:16;;;;;;;;;;;19.70;59.10;;;;;;5076296;28;1356;-71
2022/01/06 00:30:41;;;;;;;;;;;19.70;59.10;;;;;;5075870;28;1403;-71
2022/01/06 00:33:07;;;;;;;;;;;19.70;59.10;;;;;;5075492;28;1902;-71
2022/01/06 00:35:32;;;;;;;;;;;19.70;59.10;;;;;;5074947;28;1549;-71
2022/01/06 00:37:58;;;;;;;;;;;19.70;59.10;;;;;;5075819;28;1082;-70
2022/01/06 00:40:23;;;;;;;;;;;19.70;59.20;;;;;;5075704;28;1343;-71
2022/01/06 00:42:49;;;;;;;;;;;19.60;59.20;;;;;;5075524;28;1314;-71
2022/01/06 00:45:14;;;;;;;;;;;19.60;59.20;;;;;;5075518;28;1384;-71
2022/01/06 00:47:39;;;;;;;;;;;19.60;59.20;;;;;;5075689;28;1394;-71
2022/01/06 00:50:05;;;;;;;;;;;19.60;59.20;;;;;;5057415;28;1288;-71
2022/01/06 00:52:31;;;;;;;;;;;19.60;59.20;;;;;;5069531;28;1902;-70
2022/01/06 00:54:56;;;;;;;;;;;19.60;59.20;;;;;;5068145;28;1381;-69
2022/01/06 00:57:22;;;;;;;;;;;19.60;59.20;;;;;;5075803;28;1323;-70
2022/01/06 00:59:47;;;;;;;;;;;19.60;59.20;;;;;;5058046;28;1347;-70
2022/01/06 01:02:12;;;;;;;;;;;19.60;59.30;;;;;;5063421;28;1182;-70
2022/01/06 01:04:38;;;;;;;;;;;19.60;59.30;;;;;;5073896;28;1285;-70
2022/01/06 01:07:03;;;;;;;;;;;19.60;59.30;;;;;;5075802;28;1279;-70
2022/01/06 01:09:30;;;;;;;;;;;19.60;59.30;;;;;;5075197;28;1269;-69
2022/01/06 01:11:56;;;;;;;;;;;19.60;59.40;;;;;;5075293;28;1382;-70
2022/01/06 01:14:30;;;;;;;;;;;19.60;59.40;;;;;;5074659;28;1975;-70
2022/01/06 01:17:01;;;;;;;;;;;19.60;59.40;;;;;;5075232;28;1076;-69
2022/01/06 01:19:26;;;;;;;;;;;19.60;59.40;;;;;;5075335;28;1032;-70
2022/01/06 01:21:52;;;;;;;;;;;19.60;59.40;;;;;;5057465;28;1281;-69
2022/01/06 01:24:18;;;;;;;;;;;19.60;59.40;;;;;;5074449;28;1381;-70
2022/01/06 01:26:43;;;;;;;;;;;19.50;59.40;;;;;;5056896;28;1278;-70
2022/01/06 01:29:19;;;;;;;;;;;19.60;59.50;;;;;;5075013;28;1304;-70
2022/01/06 01:31:50;;;;;;;;;;;19.50;59.40;;;;;;5058176;28;1073;-70
2022/01/06 01:34:21;;;;;;;;;;;19.60;59.50;;;;;;5074574;28;1906;-70
2022/01/06 01:36:47;;;;;;;;;;;19.50;59.40;;;;;;5058414;28;1315;-70
2022/01/06 01:39:13;;;;;;;;;;;19.60;59.40;;;;;;5074787;28;1096;-70
2022/01/06 01:41:38;;;;;;;;;;;19.50;59.40;;;;;;5056809;28;1054;-70
2022/01/06 01:44:11;;;;;;;;;;;19.50;59.40;;;;;;5064634;28;1366;-69
2022/01/06 01:46:42;;;;;;;;;;;19.60;59.40;;;;;;5049957;28;1340;-69
2022/01/06 01:51:33;;;;;;;;;;;19.50;59.40;;;;;;5069064;28;1312;-68
2022/01/06 01:53:59;;;;;;;;;;;19.50;59.30;;;;;;5065627;28;1898;-69
2022/01/06 01:56:25;;;;;;;;;;;19.50;59.40;;;;;;5067161;28;1232;-70
2022/01/06 01:58:50;;;;;;;;;;;19.60;59.40;;;;;;5047882;28;1328;-70
2022/01/06 02:01:15;;;;;;;;;;;19.60;59.40;;;;;;5066489;28;1406;-69
2022/01/06 02:03:41;;;;;;;;;;;19.50;59.30;;;;;;5064832;28;1389;-69
2022/01/06 02:06:06;;;;;;;;;;;19.50;59.30;;;;;;5067456;28;1316;-70
2022/01/06 02:08:32;;;;;;;;;;;19.50;59.30;;;;;;5067779;28;1390;-69
2022/01/06 02:10:57;;;;;;;;;;;19.50;59.40;;;;;;5068026;28;1430;-70
2022/01/06 02:13:28;;;;;;;;;;;19.60;59.40;;;;;;5046783;28;1914;-70
2022/01/06 02:15:53;;;;;;;;;;;19.50;59.40;;;;;;5069418;28;1325;-69
2022/01/06 02:18:19;;;;;;;;;;;19.50;59.40;;;;;;5067152;28;1241;-69
2022/01/06 02:20:44;;;;;;;;;;;19.50;59.40;;;;;;5068054;28;1659;-69
2022/01/06 02:23:10;;;;;;;;;;;19.50;59.30;;;;;;5065346;28;1269;-69
2022/01/06 02:25:35;;;;;;;;;;;19.50;59.40;;;;;;5065683;28;1319;-72
2022/01/06 02:28:02;;;;;;;;;;;19.60;59.40;;;;;;5073938;28;1495;-71
2022/01/06 02:30:28;;;;;;;;;;;19.50;59.30;;;;;;5056572;28;1682;-71
2022/01/06 02:32:54;;;;;;;;;;;19.60;59.40;;;;;;5055758;28;1953;-71
2022/01/06 02:35:21;;;;;;;;;;;19.50;59.30;;;;;;5056435;28;1706;-72
2022/01/06 02:37:46;;;;;;;;;;;19.50;59.30;;;;;;5073391;28;1417;-71
2022/01/06 02:40:12;;;;;;;;;;;19.50;59.30;;;;;;5074016;28;1607;-71
2022/01/06 02:43:07;;;;;;;;;;;19.50;59.30;;;;;;5055638;28;1428;-68
2022/01/06 02:45:33;;;;;;;;;;;19.50;59.30;;;;;;5052342;28;1363;-70
2022/01/06 02:48:00;;;;;;;;;;;19.60;59.30;;;;;;5073924;28;1454;-70
2022/01/06 02:50:25;;;;;;;;;;;19.50;59.30;;;;;;5073826;28;1053;-71
2022/01/06 02:52:51;;;;;;;;;;;19.50;59.30;;;;;;5056665;28;1919;-70
2022/01/06 02:55:16;;;;;;;;;;;19.50;59.30;;;;;;5055617;28;1725;-72
2022/01/06 02:57:42;;;;;;;;;;;19.50;59.30;;;;;;5073571;28;1425;-71
2022/01/06 03:00:08;;;;;;;;;;;19.50;59.30;;;;;;5073549;28;1169;-71
2022/01/06 03:02:34;;;;;;;;;;;19.50;59.30;;;;;;5042231;28;1633;-70
2022/01/06 03:04:59;;;;;;;;;;;19.60;59.40;;;;;;5073168;28;1435;-70
2022/01/06 03:07:26;;;;;;;;;;;19.50;59.30;;;;;;5073878;28;1582;-69
2022/01/06 03:09:55;;;;;;;;;;;19.50;59.30;;;;;;5056532;28;1413;-69
2022/01/06 03:12:25;;;;;;;;;;;19.50;59.30;;;;;;5074055;28;1321;-69
2022/01/06 03:14:51;;;;;;;;;;;19.60;59.40;;;;;;5073805;28;1959;-69
2022/01/06 03:17:16;;;;;;;;;;;19.50;59.30;;;;;;5073974;28;1358;-69
2022/01/06 03:19:42;;;;;;;;;;;19.50;59.40;;;;;;5074383;28;1636;-69
2022/01/06 03:22:07;;;;;;;;;;;19.60;59.40;;;;;;5073487;28;1507;-69
2022/01/06 03:24:32;;;;;;;;;;;19.50;59.30;;;;;;5073745;28;1699;-69
2022/01/06 03:26:58;;;;;;;;;;;19.50;59.40;;;;;;5073938;28;1430;-69
2022/01/06 03:29:23;;;;;;;;;;;19.60;59.40;;;;;;5073959;28;1571;-69
2022/01/06 03:31:49;;;;;;;;;;;19.50;59.40;;;;;;5074178;28;1647;-68
2022/01/06 03:34:14;;;;;;;;;;;19.50;59.40;;;;;;5074551;28;1906;-69
2022/01/06 03:36:40;;;;;;;;;;;19.60;59.40;;;;;;5056153;28;1473;-69
2022/01/06 03:39:05;;;;;;;;;;;19.60;59.40;;;;;;5073769;28;1646;-69
2022/01/06 03:41:31;;;;;;;;;;;19.50;59.40;;;;;;5073205;28;1670;-69
2022/01/06 03:43:56;;;;;;;;;;;19.50;59.40;;;;;;5055222;28;1683;-69
2022/01/06 03:46:22;;;;;;;;;;;19.50;59.40;;;;;;5073411;28;1666;-69
2022/01/06 03:48:47;;;;;;;;;;;19.50;59.40;;;;;;5073549;28;1588;-69
2022/01/06 03:51:13;;;;;;;;;;;19.50;59.40;;;;;;5077539;28;1348;-69
2022/01/06 03:53:38;;;;;;;;;;;19.50;59.40;;;;;;5077005;28;1961;-69
2022/01/06 03:56:04;;;;;;;;;;;19.50;59.40;;;;;;5077668;28;1433;-68
2022/01/06 03:58:29;;;;;;;;;;;19.50;59.40;;;;;;5077679;28;1369;-69
2022/01/06 04:00:54;;;;;;;;;;;19.50;59.40;;;;;;5077125;28;1241;-69
2022/01/06 04:03:20;;;;;;;;;;;19.50;59.50;;;;;;5058999;28;1376;-69
2022/01/06 04:05:45;;;;;;;;;;;19.50;60.10;;;;;;5076885;28;1623;-69
2022/01/06 04:08:11;;;;;;;;;;;19.50;59.50;;;;;;5076839;28;1665;-69
2022/01/06 04:10:36;;;;;;;;;;;19.50;59.50;;;;;;5076706;28;1506;-69
2022/01/06 04:13:02;;;;;;;;;;;19.50;59.50;;;;;;5076467;28;1969;-68
2022/01/06 04:15:27;;;;;;;;;;;19.50;59.50;;;;;;5077128;28;1623;-69
2022/01/06 04:17:53;;;;;;;;;;;19.50;59.50;;;;;;5076627;28;1736;-69
2022/01/06 04:20:18;;;;;;;;;;;19.50;59.50;;;;;;5080067;28;1711;-70
2022/01/06 04:22:43;;;;;;;;;;;19.50;59.50;;;;;;5078668;28;1679;-70
2022/01/06 04:25:09;;;;;;;;;;;19.50;59.50;;;;;;5078838;28;1366;-69
2022/01/06 04:27:34;;;;;;;;;;;19.50;59.50;;;;;;5076348;28;1682;-69
2022/01/06 04:30:00;;;;;;;;;;;19.50;59.50;;;;;;5076377;28;1093;-69
2022/01/06 04:32:25;;;;;;;;;;;19.50;59.50;;;;;;5078630;28;1685;-69
2022/01/06 04:34:51;;;;;;;;;;;19.40;59.50;;;;;;5060496;28;1959;-69
2022/01/06 04:37:16;;;;;;;;;;;19.50;59.50;;;;;;5079036;28;1422;-70
2022/01/06 04:39:41;;;;;;;;;;;19.40;59.50;;;;;;5079165;28;1703;-69
2022/01/06 04:42:07;;;;;;;;;;;19.50;59.50;;;;;;5079317;28;1388;-69
2022/01/06 04:44:32;;;;;;;;;;;19.50;59.60;;;;;;5079216;28;1542;-69
2022/01/06 04:46:58;;;;;;;;;;;19.50;59.60;;;;;;5079048;28;1677;-70
2022/01/06 04:49:23;;;;;;;;;;;19.40;59.50;;;;;;5075820;28;1382;-68
2022/01/06 04:51:49;;;;;;;;;;;19.40;59.50;;;;;;5075781;28;1388;-69
2022/01/06 04:54:14;;;;;;;;;;;19.40;59.60;;;;;;5057293;28;1963;-69
2022/01/06 04:56:40;;;;;;;;;;;19.40;59.60;;;;;;5075969;28;1678;-69
2022/01/06 04:59:06;;;;;;;;;;;19.40;59.60;;;;;;5075792;28;1362;-69
2022/01/06 05:01:31;;;;;;;;;;;19.40;59.60;;;;;;5074970;28;1517;-69
2022/01/06 05:03:57;;;;;;;;;;;19.40;59.60;;;;;;5057518;28;1668;-70
2022/01/06 05:06:22;;;;;;;;;;;19.40;59.60;;;;;;5076277;28;1694;-68
2022/01/06 05:08:47;;;;;;;;;;;19.40;59.60;;;;;;5075912;28;1594;-68
2022/01/06 05:11:13;;;;;;;;;;;19.40;59.50;;;;;;5075735;28;1470;-68
2022/01/06 05:13:38;;;;;;;;;;;19.40;59.50;;;;;;5074906;28;1905;-68
2022/01/06 05:16:04;;;;;;;;;;;19.50;59.50;;;;;;5074723;28;1221;-69
2022/01/06 05:18:29;;;;;;;;;;;19.50;59.40;;;;;;5075244;28;1387;-68
2022/01/06 05:20:55;;;;;;;;;;;19.50;59.30;;;;;;5057377;28;1598;-68
2022/01/06 05:23:20;;;;;;;;;;;19.60;59.20;;;;;;5075263;28;1342;-68
2022/01/06 05:25:46;;;;;;;;;;;19.60;59.10;;;;;;5057529;28;1648;-68
2022/01/06 05:28:11;;;;;;;;;;;19.60;59.00;;;;;;5075638;28;1343;-68
2022/01/06 05:30:36;;;;;;;;;;;19.70;59.00;;;;;;5076781;28;1712;-70
2022/01/06 05:33:02;;;;;;;;;;;19.70;58.90;;;;;;5058678;28;1947;-69
2022/01/06 05:35:27;;;;;;;;;;;19.70;58.80;;;;;;5076113;28;1501;-69
2022/01/06 05:37:53;;;;;;;;;;;19.70;58.70;;;;;;5075074;28;1406;-69
2022/01/06 05:40:18;;;;;;;;;;;19.80;58.60;;;;;;5075104;28;1443;-69
2022/01/06 05:42:44;;;;;;;;;;;19.80;58.60;;;;;;5056736;28;1362;-69
2022/01/06 05:45:09;;;;;;;;;;;19.80;58.50;;;;;;5075877;28;1416;-70
2022/01/06 05:47:34;;;;;;;;;;;19.90;58.50;;;;;;5074753;28;1417;-70
2022/01/06 05:50:00;;;;;;;;;;;19.90;58.40;;;;;;5074641;28;1373;-69
2022/01/06 05:52:25;;;;;;;;;;;19.90;58.30;;;;;;5074688;28;1378;-70
2022/01/06 05:54:51;;;;;;;;;;;19.90;58.30;;;;;;5074261;28;1980;-69
2022/01/06 05:57:16;;;;;;;;;;;19.90;58.30;;;;;;5075369;28;1375;-69
2022/01/06 05:59:42;;;;;;;;;;;19.90;58.30;;;;;;5075586;28;1592;-69
2022/01/06 06:02:07;;;;;;;;;;;19.90;58.20;;;;;;5075621;28;1661;-70
2022/01/06 06:04:33;;;;;;;;;;;19.90;58.20;;;;;;5074932;28;1382;-69
2022/01/06 06:06:58;;;;;;;;;;;19.90;58.20;;;;;;5075489;28;1348;-69
2022/01/06 06:09:24;;;;;;;;;;;20.00;58.20;;;;;;5057381;28;1262;-69
2022/01/06 06:11:49;;;;;;;;;;;19.90;58.20;;;;;;5069648;28;2115;-69
2022/01/06 06:14:15;;;;;;;;;;;20.00;58.20;;;;;;5065230;28;2018;-69
2022/01/06 06:16:40;;;;;;;;;;;20.00;58.20;;;;;;5086956;28;1650;-69
2022/01/06 06:19:06;;;;;;;;;;;20.00;58.20;;;;;;5074503;28;1323;-69
2022/01/06 06:21:31;;;;;;;;;;;19.90;58.10;;;;;;5056459;28;1385;-68
2022/01/06 06:23:56;;;;;;;;;;;20.00;58.20;;;;;;5073577;28;1707;-68
2022/01/06 06:26:22;;;;;;;;;;;19.90;58.10;;;;;;5074114;28;1655;-67
2022/01/06 06:28:47;;;;;;;;;;;20.00;58.20;;;;;;5073891;28;1578;-67
2022/01/06 06:31:13;;;;;;;;;;;19.90;58.10;;;;;;5074327;28;1638;-68
2022/01/06 06:33:38;;;;;;;;;;;20.00;58.20;;;;;;5073300;28;1906;-68
2022/01/06 06:36:04;;;;;;;;;;;20.00;58.20;;;;;;5070728;28;1984;-67
2022/01/06 06:38:29;;;;;;;;;;;19.90;58.10;;;;;;5067254;28;1602;-68
2022/01/06 06:40:55;;;;;;;;;;;19.90;58.10;;;;;;5063463;28;1615;-67
2022/01/06 06:43:20;;;;;;;;;;;19.90;58.10;;;;;;5073421;28;1426;-68
2022/01/06 06:45:45;;;;;;;;;;;20.00;58.10;;;;;;5070653;28;1366;-68
2022/01/06 06:48:11;;;;;;;;;;;20.00;58.10;;;;;;5073517;28;1417;-68
2022/01/06 06:50:37;;;;;;;;;;;20.00;58.20;;;;;;5073285;28;1531;-68
2022/01/06 06:53:02;;;;;;;;;;;19.90;58.10;;;;;;5073092;28;1897;-68
2022/01/06 06:55:28;;;;;;;;;;;19.90;58.00;;;;;;5056052;28;1608;-67
2022/01/06 06:57:53;;;;;;;;;;;20.00;58.10;;;;;;5055645;28;1692;-68
2022/01/06 07:00:19;;;;;;;;;;;19.90;58.00;;;;;;5073487;28;1349;-68
2022/01/06 07:02:44;;;;;;;;;;;19.90;58.00;;;;;;5059426;28;1139;-69
2022/01/06 07:05:09;;;;;;;;;;;20.00;58.10;;;;;;5073232;28;1437;-70
2022/01/06 07:07:35;;;;;;;;;;;20.00;58.10;;;;;;5073052;28;1389;-70
2022/01/06 07:10:01;;;;;;;;;;;20.00;58.00;;;;;;5073278;28;1052;-69
2022/01/06 07:12:26;;;;;;;;;;;20.00;58.00;;;;;;5072967;28;1123;-69
2022/01/06 07:14:51;;;;;;;;;;;20.00;58.00;;;;;;5072536;28;1965;-69
2022/01/06 07:17:17;;;;;;;;;;;20.00;58.10;;;;;;5072899;28;1075;-69
2022/01/06 07:19:42;;;;;;;;;;;20.00;58.00;;;;;;5072730;28;1047;-69
2022/01/06 07:22:08;;;;;;;;;;;20.00;58.00;;;;;;5072942;28;1100;-70
2022/01/06 07:24:34;;;;;;;;;;;20.00;58.00;;;;;;5072210;28;1235;-69
2022/01/06 07:27:00;;;;;;;;;;;20.00;58.00;;;;;;5072890;28;1378;-67
2022/01/06 07:29:27;;;;;;;;;;;20.00;58.00;;;;;;5072901;28;1337;-70
2022/01/06 07:31:52;;;;;;;;;;;20.00;58.00;;;;;;5072885;28;1040;-70
2022/01/06 07:34:19;;;;;;;;;;;20.00;58.00;;;;;;5072145;28;1906;-69
2022/01/06 07:36:45;;;;;;;;;;;20.00;58.00;;;;;;5072769;28;1135;-69
2022/01/06 07:39:10;;;;;;;;;;;20.00;58.00;;;;;;5054925;28;1084;-70
2022/01/06 07:41:36;;;;;;;;;;;20.00;58.00;;;;;;5072937;28;997;-68
2022/01/06 07:44:06;;;;;;;;;;;20.00;58.00;;;;;;5069509;28;1475;-68
2022/01/06 07:46:31;;;;;;;;;;;20.00;58.00;;;;;;5071137;28;1127;-70
2022/01/06 07:48:57;;;;;;;;;;;20.00;58.00;;;;;;5072748;28;1044;-68
2022/01/06 07:51:23;;;;;;;;;;;20.00;58.00;;;;;;5073920;28;1366;-68
2022/01/06 07:53:49;;;;;;;;;;;20.00;58.00;;;;;;5073225;28;1914;-68
2022/01/06 07:56:14;;;;;;;;;;;20.00;57.90;;;;;;5073709;28;1218;-66
2022/01/06 07:58:39;;;;;;;;;;;20.10;57.90;;;;;;5073069;28;1094;-66
2022/01/06 08:01:05;;;;;;;;;;;20.20;57.70;;;;;;5073204;28;1256;-68
2022/01/06 08:03:30;;;;;;;;;;;20.40;57.60;;;;;;5072602;28;1339;-67
2022/01/06 08:05:56;;;;;;;;;;;20.50;57.40;;;;;;5073307;28;1318;-67
2022/01/06 08:08:21;;;;;;;;;;;20.60;57.10;;;;;;5073258;28;1369;-69
2022/01/06 08:10:46;;;;;;;;;;;20.80;56.80;;;;;;5072370;28;1298;-66
2022/01/06 08:13:12;;;;;;;;;;;21.00;56.30;;;;;;5072904;28;1913;-67
2022/01/06 08:15:37;;;;;;;;;;;21.20;56.00;;;;;;5072501;28;1354;-68
2022/01/06 08:18:03;;;;;;;;;;;21.40;55.70;;;;;;5072598;28;1069;-67
2022/01/06 08:20:28;;;;;;;;;;;21.50;55.40;;;;;;5054930;28;1338;-67
2022/01/06 08:22:54;;;;;;;;;;;21.70;55.10;;;;;;5072468;28;1342;-68
2022/01/06 08:25:19;;;;;;;;;;;21.80;55.40;;;;;;5073014;28;1389;-67
2022/01/06 08:27:44;;;;;;;;;;;21.90;54.50;;;;;;5072592;28;1278;-68
2022/01/06 08:30:10;;;;;;;;;;;21.90;54.20;;;;;;5072463;28;1272;-70
2022/01/06 08:32:35;;;;;;;;;;;22.00;54.00;;;;;;5072886;28;1272;-67
2022/01/06 08:35:01;;;;;;;;;;;22.10;53.90;;;;;;5072356;28;1906;-67
2022/01/06 08:37:27;;;;;;;;;;;22.10;53.80;;;;;;5057789;28;1533;-68
2022/01/06 08:39:52;;;;;;;;;;;22.10;53.70;;;;;;5076526;28;1279;-67
2022/01/06 08:42:17;;;;;;;;;;;22.10;53.70;;;;;;5076780;28;1018;-67
2022/01/06 08:44:43;;;;;;;;;;;22.20;53.70;;;;;;5076161;28;1536;-69
2022/01/06 08:47:09;;;;;;;;;;;22.20;53.70;;;;;;5076116;28;1163;-67
2022/01/06 08:49:34;;;;;;;;;;;22.10;53.70;;;;;;5076148;28;1387;-68
2022/01/06 08:51:59;;;;;;;;;;;22.20;53.80;;;;;;5076443;28;1310;-67
2022/01/06 08:54:25;;;;;;;;;;;22.10;53.80;;;;;;5075749;28;1950;-69
2022/01/06 08:56:50;;;;;;;;;;;22.10;53.80;;;;;;5076047;28;1065;-67
2022/01/06 08:59:16;;;;;;;;;;;22.10;53.90;;;;;;5075741;28;1236;-68
2022/01/06 09:01:41;;;;;;;;;;;22.10;54.00;;;;;;5075093;28;1273;-68
2022/01/06 09:04:07;;;;;;;;;;;22.10;54.10;;;;;;5075100;28;1263;-67
2022/01/06 09:06:32;;;;;;;;;;;22.10;54.20;;;;;;5075663;28;1365;-67
2022/01/06 09:08:57;;;;;;;;;;;22.10;54.20;;;;;;5075268;28;1374;-68
2022/01/06 09:11:23;;;;;;;;;;;22.00;54.30;;;;;;5056995;28;1329;-66
2022/01/06 09:13:48;;;;;;;;;;;22.00;54.20;;;;;;5075302;28;1905;-67
2022/01/06 09:16:14;;;;;;;;;;;22.00;54.20;;;;;;5075196;28;1338;-68
2022/01/06 09:18:39;;;;;;;;;;;22.00;54.20;;;;;;5053476;28;1364;-67
2022/01/06 09:21:05;;;;;;;;;;;22.00;54.20;;;;;;5057737;28;1056;-66
2022/01/06 09:23:30;;;;;;;;;;;22.00;54.30;;;;;;5056735;28;1467;-67
2022/01/06 09:25:56;;;;;;;;;;;22.00;54.30;;;;;;5076028;28;1268;-66
2022/01/06 09:28:21;;;;;;;;;;;21.90;54.30;;;;;;5075982;28;1169;-66
2022/01/06 09:30:47;;;;;;;;;;;21.90;54.30;;;;;;5075893;28;1331;-67
2022/01/06 09:33:13;;;;;;;;;;;21.90;54.40;;;;;;5075290;28;1898;-66
2022/01/06 09:35:39;;;;;;;;;;;21.90;54.40;;;;;;5075829;28;1516;-67
2022/01/06 09:38:04;;;;;;;;;;;21.80;54.50;;;;;;5057183;28;1371;-69
2022/01/06 09:40:30;;;;;;;;;;;21.80;54.50;;;;;;5075118;28;1068;-69
2022/01/06 09:42:55;;;;;;;;;;;21.80;54.60;;;;;;5074541;28;1064;-69
2022/01/06 09:45:23;;;;;;;;;;;21.80;54.70;;;;;;5074405;28;1301;-69
2022/01/06 09:47:49;;;;;;;;;;;21.70;54.70;;;;;;5067329;28;1486;-69
2022/01/06 10:05:03;;;;;;;;;;;21.60;55.10;;;;;;5201441;22;1832;-69
2022/01/06 10:07:34;;;;;;;;;;;21.50;55.10;;;;;;5065695;28;1674;-72
2022/01/06 10:10:03;;;;;;;;;;;21.60;55.20;;;;;;5066886;28;1498;-70
2022/01/06 10:12:28;;;;;;;;;;;21.50;55.20;;;;;;5072700;28;1705;-68
2022/01/06 10:14:55;;;;;;;;;;;21.50;55.30;;;;;;5066437;28;1977;-68
2022/01/06 10:17:31;;;;;;;;;;;21.50;55.30;;;;;;5067436;28;1668;-68
2022/01/06 10:29:06;;;;;;;;;;;21.40;55.50;;;;;;5073250;28;1265;-71
2022/01/06 10:31:32;;;;;;;;;;;21.40;55.60;;;;;;5061015;28;1522;-70
2022/01/06 10:33:57;;;;;;;;;;;21.40;55.60;;;;;;5047064;28;1961;-69
2022/01/06 10:36:29;;;;;;;;;;;21.30;55.60;;;;;;5063035;28;1883;-70
2022/01/06 10:38:55;;;;;;;;;;;21.30;55.70;;;;;;5083434;28;1259;-71
2022/01/06 10:41:20;;;;;;;;;;;21.30;55.70;;;;;;5061117;28;1731;-69
2022/01/06 10:43:53;;;;;;;;;;;21.30;55.70;;;;;;5066327;28;1373;-68
2022/01/06 10:46:29;;;;;;;;;;;21.30;55.80;;;;;;5059619;28;1133;-68
2022/01/06 10:49:02;;;;;;;;;;;21.30;55.80;;;;;;5066148;28;1286;-67
2022/01/06 10:54:30;;;;;;;;;;;21.20;55.80;;;;;;5057837;28;1971;-69
2022/01/06 10:57:00;;;;;;;;;;;21.20;55.90;;;;;;5069851;28;1308;-68
2022/01/06 10:59:27;;;;;;;;;;;21.20;55.90;;;;;;5066333;28;1102;-69
2022/01/06 11:01:52;;;;;;;;;;;21.20;56.00;;;;;;5067440;28;1132;-71
2022/01/06 11:04:33;;;;;;;;;;;21.10;56.00;;;;;;5061012;28;1588;-72
2022/01/06 11:06:58;;;;;;;;;;;21.10;56.10;;;;;;5061677;28;1139;-68
2022/01/06 11:09:25;;;;;;;;;;;21.10;56.10;;;;;;5058572;28;1321;-68
2022/01/06 11:14:28;;;;;;;;;;;21.10;56.20;;;;;;5062249;28;1975;-70
2022/01/06 11:16:54;;;;;;;;;;;21.10;56.20;;;;;;5058344;28;1417;-70
2022/01/06 11:19:21;;;;;;;;;;;21.10;56.20;;;;;;5050963;28;1417;-70
2022/01/06 11:21:47;;;;;;;;;;;21.10;56.20;;;;;;5057789;28;1973;-70
2022/01/06 11:24:13;;;;;;;;;;;21.10;56.20;;;;;;5069371;28;1435;-70
2022/01/06 11:26:39;;;;;;;;;;;21.10;56.30;;;;;;5067900;28;1314;-70
2022/01/06 11:29:05;;;;;;;;;;;21.10;56.30;;;;;;5046332;28;1750;-67
2022/01/06 11:31:39;;;;;;;;;;;21.10;56.30;;;;;;5052880;28;1198;-68
2022/01/06 11:34:10;;;;;;;;;;;21.10;56.30;;;;;;5057599;28;1894;-70
2022/01/06 11:36:36;;;;;;;;;;;21.10;56.30;;;;;;5056186;28;1419;-70
2022/01/06 11:39:03;;;;;;;;;;;21.00;56.30;;;;;;5050332;28;1071;-71
2022/01/06 11:41:32;;;;;;;;;;;21.00;56.30;;;;;;5049711;28;1059;-66
2022/01/06 11:43:58;;;;;;;;;;;21.00;56.30;;;;;;5062828;28;1719;-67
2022/01/06 11:46:24;;;;;;;;;;;21.10;56.40;;;;;;5071020;28;937;-67
2022/01/06 11:48:56;;;;;;;;;;;21.10;56.30;;;;;;5078007;28;1290;-68
2022/01/06 11:51:23;;;;;;;;;;;21.10;56.30;;;;;;5058841;28;1531;-67
2022/01/06 11:53:48;;;;;;;;;;;21.10;56.20;;;;;;5050085;28;1965;-67
2022/01/06 11:56:13;;;;;;;;;;;21.10;56.10;;;;;;5051584;28;1084;-67
2022/01/06 11:58:39;;;;;;;;;;;21.10;56.10;;;;;;5050811;28;1277;-67
2022/01/06 12:01:05;;;;;;;;;;;21.20;56.10;;;;;;5058278;28;1380;-67
2022/01/06 12:03:33;;;;;;;;;;;21.20;56.00;;;;;;5069217;28;1525;-68
2022/01/06 12:05:59;;;;;;;;;;;21.20;56.00;;;;;;5071561;28;1066;-67
2022/01/06 12:08:39;;;;;;;;;;;21.20;55.90;;;;;;5071004;28;1370;-68
2022/01/06 12:11:04;;;;;;;;;;;21.20;55.80;;;;;;5054408;28;1316;-68
2022/01/06 12:13:29;;;;;;;;;;;21.20;55.80;;;;;;5053640;28;1951;-67
2022/01/06 12:15:56;;;;;;;;;;;21.20;55.80;;;;;;5072607;28;1379;-68
2022/01/06 12:18:22;;;;;;;;;;;21.20;55.80;;;;;;5064016;28;1435;-68
2022/01/06 12:20:48;;;;;;;;;;;21.20;55.80;;;;;;5071687;28;1377;-68
2022/01/06 12:23:14;;;;;;;;;;;21.20;55.80;;;;;;5073533;28;1318;-68
2022/01/06 12:25:39;;;;;;;;;;;21.20;55.80;;;;;;5073838;28;1325;-69
2022/01/06 12:28:05;;;;;;;;;;;21.20;55.80;;;;;;5074304;28;1366;-69
2022/01/06 12:30:30;;;;;;;;;;;21.20;55.80;;;;;;5073871;28;1324;-69
2022/01/06 12:33:00;;;;;;;;;;;21.20;55.80;;;;;;5071465;28;1890;-70
2022/01/06 12:35:35;;;;;;;;;;;21.20;55.80;;;;;;5074117;28;1362;-67
2022/01/06 12:38:01;;;;;;;;;;;21.20;55.80;;;;;;5084954;28;1119;-66
2022/01/06 12:40:52;;;;;;;;;;;21.20;55.90;;;;;;5055089;28;1387;-67
2022/01/06 12:43:19;;;;;;;;;;;21.20;55.90;;;;;;5051429;28;1780;-71
2022/01/06 12:45:44;;;;;;;;;;;21.20;55.90;;;;;;5063943;28;1116;-68
2022/01/06 12:48:11;;;;;;;;;;;21.20;56.00;;;;;;5074066;28;1380;-67
2022/01/06 12:50:43;;;;;;;;;;;21.20;56.00;;;;;;5071694;28;1250;-68
2022/01/06 12:53:09;;;;;;;;;;;21.10;56.00;;;;;;5053803;28;1898;-72
2022/01/06 12:55:41;;;;;;;;;;;21.10;56.00;;;;;;5054641;28;1283;-69
2022/01/06 12:58:06;;;;;;;;;;;21.20;56.10;;;;;;5054008;28;1158;-67
2022/01/06 13:00:32;;;;;;;;;;;21.10;56.10;;;;;;5053050;28;1260;-67
2022/01/06 13:03:01;;;;;;;;;;;21.10;56.10;;;;;;5071947;28;1382;-68
2022/01/06 13:05:27;;;;;;;;;;;21.10;56.10;;;;;;5075034;28;869;-70
2022/01/06 13:08:00;;;;;;;;;;;21.10;56.20;;;;;;5072894;28;1046;-71
2022/01/06 13:10:25;;;;;;;;;;;21.10;56.20;;;;;;5060231;28;1122;-71
2022/01/06 13:13:01;;;;;;;;;;;21.10;56.20;;;;;;5053644;28;1099;-70
2022/01/06 13:15:30;;;;;;;;;;;21.10;56.20;;;;;;5066129;28;1187;-69
2022/01/06 13:17:56;;;;;;;;;;;21.10;56.20;;;;;;5065183;28;1167;-70
2022/01/06 13:20:21;;;;;;;;;;;21.00;56.40;;;;;;5070709;28;1265;-69
2022/01/06 13:25:28;;;;;;;;;;;21.00;56.30;;;;;;5071666;28;1816;-70
2022/01/06 13:27:54;;;;;;;;;;;21.00;56.40;;;;;;5054101;28;2002;-71
2022/01/06 13:30:36;;;;;;;;;;;21.00;56.40;;;;;;5070492;28;989;-70
2022/01/06 13:33:02;;;;;;;;;;;21.00;56.40;;;;;;5068806;28;1960;-71
2022/01/06 13:35:28;;;;;;;;;;;21.00;56.40;;;;;;5070534;28;1690;-70
2022/01/06 13:37:53;;;;;;;;;;;21.00;56.40;;;;;;5062481;28;1048;-71
2022/01/06 13:40:19;;;;;;;;;;;21.00;56.40;;;;;;5053779;28;1393;-70
2022/01/06 13:42:47;;;;;;;;;;;21.00;56.40;;;;;;5053992;28;1070;-70
2022/01/06 13:45:25;;;;;;;;;;;21.00;57.00;;;;;;5051974;28;1343;-70
2022/01/06 13:48:00;;;;;;;;;;;21.00;56.50;;;;;;5052947;28;1300;-70
2022/01/06 13:53:29;;;;;;;;;;;21.00;56.50;;;;;;5072180;28;1969;-70
2022/01/06 13:55:58;;;;;;;;;;;20.90;56.50;;;;;;5074017;28;1383;-70
2022/01/06 13:58:24;;;;;;;;;;;20.90;56.50;;;;;;5074322;28;1058;-70
2022/01/06 14:00:52;;;;;;;;;;;20.90;56.50;;;;;;5071989;28;1248;-70
2022/01/06 14:03:18;;;;;;;;;;;20.90;56.50;;;;;;5054754;28;1236;-70
2022/01/06 14:05:43;;;;;;;;;;;20.90;56.60;;;;;;5072788;28;1257;-70
2022/01/06 14:08:09;;;;;;;;;;;20.90;56.60;;;;;;5073965;28;1059;-70
2022/01/06 14:10:34;;;;;;;;;;;20.90;56.80;;;;;;5056774;28;1139;-71
2022/01/06 14:13:00;;;;;;;;;;;20.80;56.60;;;;;;5058800;28;1914;-70
2022/01/06 14:15:25;;;;;;;;;;;20.90;56.60;;;;;;5066022;28;1437;-70
2022/01/06 14:17:51;;;;;;;;;;;20.90;56.60;;;;;;5051184;28;1290;-70
2022/01/06 14:20:16;;;;;;;;;;;20.80;56.60;;;;;;5052243;28;1310;-70
2022/01/06 14:22:41;;;;;;;;;;;20.80;56.70;;;;;;5052705;28;1379;-70
2022/01/06 14:25:07;;;;;;;;;;;20.80;56.70;;;;;;5058855;28;1337;-69
2022/01/06 14:27:32;;;;;;;;;;;20.80;56.70;;;;;;5059079;28;1507;-70
2022/01/06 14:29:58;;;;;;;;;;;20.80;56.80;;;;;;5072696;28;1058;-70
2022/01/06 14:32:23;;;;;;;;;;;20.80;56.80;;;;;;5073105;28;1462;-71
2022/01/06 14:34:49;;;;;;;;;;;20.70;56.80;;;;;;5071418;28;1953;-70
2022/01/06 14:37:14;;;;;;;;;;;20.70;56.80;;;;;;5072857;28;1355;-70
2022/01/06 14:39:40;;;;;;;;;;;20.70;56.90;;;;;;5073259;28;1058;-70
2022/01/06 14:42:05;;;;;;;;;;;20.70;56.90;;;;;;5071757;28;1158;-70
2022/01/06 14:44:31;;;;;;;;;;;20.70;56.90;;;;;;5072349;28;1343;-70
2022/01/06 14:46:58;;;;;;;;;;;20.70;56.90;;;;;;5072506;28;1630;-71
2022/01/06 14:49:23;;;;;;;;;;;20.70;56.90;;;;;;5073509;28;1452;-71
2022/01/06 14:51:49;;;;;;;;;;;20.70;57.00;;;;;;5072898;28;1356;-70
2022/01/06 14:54:15;;;;;;;;;;;20.70;57.00;;;;;;5070723;28;1918;-70
2022/01/06 14:56:40;;;;;;;;;;;20.70;57.00;;;;;;5072851;28;1427;-70
2022/01/06 14:59:06;;;;;;;;;;;20.70;57.00;;;;;;5072315;28;1282;-70
2022/01/06 15:01:31;;;;;;;;;;;20.70;57.00;;;;;;5072705;28;1327;-70
2022/01/06 15:03:57;;;;;;;;;;;20.70;57.00;;;;;;5072606;28;1340;-70
2022/01/06 15:06:22;;;;;;;;;;;20.60;57.00;;;;;;5072198;28;1371;-70
2022/01/06 15:08:48;;;;;;;;;;;20.60;57.00;;;;;;5071224;28;1339;-70